sensor_id;sensor_type;location;lat;lon;timestamp;temperature;humidity
48376;DHT22;34178;50.904;11.560;2023-01-09T00:00:20;5.00;99.90
48376;DHT22;34178;50.904;11.560;2023-01-09T00:02:46;5.00;99.90
48376;DHT22;34178;50.904;11.560;2023-01-09T00:05:14;5.00;99.90
48376;DHT22;34178;50.904;11.560;2023-01-09T00:07:40;5.00;99.90
48376;DHT22;34178;50.904;11.560;2023-01-09T00:10:08;5.00;99.90
48376;DHT22;34178;50.904;11.560;2023-01-09T00:12:35;5.10;99.90
48376;DHT22;34178;50.904;11.560;2023-01-09T00:15:01;5.10;99.90
48376;DHT22;34178;50.904;11.560;2023-01-09T00:17:27;5.10;99.90
48376;DHT22;34178;50.904;11.560;2023-01-09T00:19:52;5.10;99.90
48376;DHT22;34178;50.904;11.560;2023-01-09T00:22:18;5.10;99.90
48376;DHT22;34178;50.904;11.560;2023-01-09T00:24:44;5.10;99.90
48376;DHT22;34178;50.904;11.560;2023-01-09T00:27:10;5.10;99.90
48376;DHT22;34178;50.904;11.560;2023-01-09T00:29:36;5.20;99.90
48376;DHT22;34178;50.904;11.560;2023-01-09T00:32:01;5.10;99.90
48376;DHT22;34178;50.904;11.560;2023-01-09T00:34:27;5.10;99.90
48376;DHT22;34178;50.904;11.560;2023-01-09T00:36:53;5.10;99.90
48376;DHT22;34178;50.904;11.560;2023-01-09T00:39:21;5.10;99.90
48376;DHT22;34178;50.904;11.560;2023-01-09T00:41:50;5.20;99.90
48376;DHT22;34178;50.904;11.560;2023-01-09T00:44:37;5.20;99.90
48376;DHT22;34178;50.904;11.560;2023-01-09T00:47:18;5.20;99.90
48376;DHT22;34178;50.904;11.560;2023-01-09T00:49:45;5.20;99.90
48376;DHT22;34178;50.904;11.560;2023-01-09T00:52:12;5.20;99.90
48376;DHT22;34178;50.904;11.560;2023-01-09T00:54:39;5.20;99.90
48376;DHT22;34178;50.904;11.560;2023-01-09T00:57:07;5.20;99.90
48376;DHT22;34178;50.904;11.560;2023-01-09T00:59:35;5.30;99.90
48376;DHT22;34178;50.904;11.560;2023-01-09T01:02:00;5.40;99.90
48376;DHT22;34178;50.904;11.560;2023-01-09T01:04:26;5.50;99.90
48376;DHT22;34178;50.904;11.560;2023-01-09T01:07:21;5.60;99.90
48376;DHT22;34178;50.904;11.560;2023-01-09T01:10:11;5.60;99.90
48376;DHT22;34178;50.904;11.560;2023-01-09T01:12:38;5.60;99.90
48376;DHT22;34178;50.904;11.560;2023-01-09T01:15:06;5.80;99.90
48376;DHT22;34178;50.904;11.560;2023-01-09T01:17:36;5.80;99.90
48376;DHT22;34178;50.904;11.560;2023-01-09T01:20:04;5.90;99.90
48376;DHT22;34178;50.904;11.560;2023-01-09T01:22:30;6.00;99.90
48376;DHT22;34178;50.904;11.560;2023-01-09T01:24:56;6.10;99.90
48376;DHT22;34178;50.904;11.560;2023-01-09T01:27:22;6.20;99.90
48376;DHT22;34178;50.904;11.560;2023-01-09T01:29:47;6.20;99.90
48376;DHT22;34178;50.904;11.560;2023-01-09T01:32:13;6.30;99.90
48376;DHT22;34178;50.904;11.560;2023-01-09T01:34:39;6.30;99.90
48376;DHT22;34178;50.904;11.560;2023-01-09T01:37:04;6.40;99.90
48376;DHT22;34178;50.904;11.560;2023-01-09T01:39:30;6.40;99.90
48376;DHT22;34178;50.904;11.560;2023-01-09T01:41:56;6.40;99.90
48376;DHT22;34178;50.904;11.560;2023-01-09T01:44:54;6.50;99.90
48376;DHT22;34178;50.904;11.560;2023-01-09T01:47:23;6.50;99.90
48376;DHT22;34178;50.904;11.560;2023-01-09T01:49:51;6.50;99.90
48376;DHT22;34178;50.904;11.560;2023-01-09T01:52:17;6.50;99.90
48376;DHT22;34178;50.904;11.560;2023-01-09T01:54:44;6.50;99.90
48376;DHT22;34178;50.904;11.560;2023-01-09T01:57:10;6.40;99.90
48376;DHT22;34178;50.904;11.560;2023-01-09T01:59:43;6.50;99.90
48376;DHT22;34178;50.904;11.560;2023-01-09T02:02:18;6.50;99.90
48376;DHT22;34178;50.904;11.560;2023-01-09T02:04:45;6.40;99.90
48376;DHT22;34178;50.904;11.560;2023-01-09T02:07:12;6.40;99.90
48376;DHT22;34178;50.904;11.560;2023-01-09T02:09:38;6.40;99.90
48376;DHT22;34178;50.904;11.560;2023-01-09T02:12:25;6.30;99.90
48376;DHT22;34178;50.904;11.560;2023-01-09T02:14:58;6.30;99.90
48376;DHT22;34178;50.904;11.560;2023-01-09T02:20:50;6.30;99.90
48376;DHT22;34178;50.904;11.560;2023-01-09T02:29:35;6.20;99.90
48376;DHT22;34178;50.904;11.560;2023-01-09T02:34:52;6.20;99.90
48376;DHT22;34178;50.904;11.560;2023-01-09T02:37:34;6.20;99.90
48376;DHT22;34178;50.904;11.560;2023-01-09T02:42:40;6.20;99.90
48376;DHT22;34178;50.904;11.560;2023-01-09T02:45:07;6.20;99.90
48376;DHT22;34178;50.904;11.560;2023-01-09T02:47:39;6.20;99.90
48376;DHT22;34178;50.904;11.560;2023-01-09T02:50:14;6.20;99.90
48376;DHT22;34178;50.904;11.560;2023-01-09T02:53:00;6.20;99.90
48376;DHT22;34178;50.904;11.560;2023-01-09T03:01:20;6.10;99.90
48376;DHT22;34178;50.904;11.560;2023-01-09T03:04:00;6.10;99.90
48376;DHT22;34178;50.904;11.560;2023-01-09T03:09:05;6.20;99.90
48376;DHT22;34178;50.904;11.560;2023-01-09T03:11:37;6.10;99.90
48376;DHT22;34178;50.904;11.560;2023-01-09T03:14:09;6.20;99.90
48376;DHT22;34178;50.904;11.560;2023-01-09T03:16:36;6.10;99.90
48376;DHT22;34178;50.904;11.560;2023-01-09T03:19:05;6.00;99.90
48376;DHT22;34178;50.904;11.560;2023-01-09T03:21:32;6.00;99.90
48376;DHT22;34178;50.904;11.560;2023-01-09T03:24:00;6.00;99.90
48376;DHT22;34178;50.904;11.560;2023-01-09T03:26:26;6.00;99.90
48376;DHT22;34178;50.904;11.560;2023-01-09T03:28:54;5.90;99.90
48376;DHT22;34178;50.904;11.560;2023-01-09T03:31:20;5.90;99.90
48376;DHT22;34178;50.904;11.560;2023-01-09T03:33:46;6.00;99.90
48376;DHT22;34178;50.904;11.560;2023-01-09T03:36:14;6.00;99.90
48376;DHT22;34178;50.904;11.560;2023-01-09T03:38:40;6.10;99.90
48376;DHT22;34178;50.904;11.560;2023-01-09T03:41:06;6.10;99.90
48376;DHT22;34178;50.904;11.560;2023-01-09T03:43:32;6.00;99.90
48376;DHT22;34178;50.904;11.560;2023-01-09T03:45:58;6.10;99.90
48376;DHT22;34178;50.904;11.560;2023-01-09T03:48:24;6.10;99.90
48376;DHT22;34178;50.904;11.560;2023-01-09T03:50:51;6.10;99.90
48376;DHT22;34178;50.904;11.560;2023-01-09T03:53:17;6.10;99.90
48376;DHT22;34178;50.904;11.560;2023-01-09T03:55:45;6.10;99.90
48376;DHT22;34178;50.904;11.560;2023-01-09T03:58:12;6.10;99.90
48376;DHT22;34178;50.904;11.560;2023-01-09T04:00:37;6.20;99.90
48376;DHT22;34178;50.904;11.560;2023-01-09T04:03:05;6.20;99.90
48376;DHT22;34178;50.904;11.560;2023-01-09T04:05:31;6.20;99.90
48376;DHT22;34178;50.904;11.560;2023-01-09T04:07:57;6.20;99.90
48376;DHT22;34178;50.904;11.560;2023-01-09T04:10:23;6.30;99.90
48376;DHT22;34178;50.904;11.560;2023-01-09T04:12:49;6.30;99.90
48376;DHT22;34178;50.904;11.560;2023-01-09T04:15:15;6.30;99.90
48376;DHT22;34178;50.904;11.560;2023-01-09T04:17:40;6.30;99.90
48376;DHT22;34178;50.904;11.560;2023-01-09T04:20:07;6.30;99.90
48376;DHT22;34178;50.904;11.560;2023-01-09T04:22:32;6.30;99.90
48376;DHT22;34178;50.904;11.560;2023-01-09T04:24:58;6.20;99.90
48376;DHT22;34178;50.904;11.560;2023-01-09T04:27:24;6.30;99.90
48376;DHT22;34178;50.904;11.560;2023-01-09T04:29:49;6.20;99.90
48376;DHT22;34178;50.904;11.560;2023-01-09T04:32:15;6.30;99.90
48376;DHT22;34178;50.904;11.560;2023-01-09T04:34:41;6.30;99.90
48376;DHT22;34178;50.904;11.560;2023-01-09T04:37:06;6.40;99.90
48376;DHT22;34178;50.904;11.560;2023-01-09T04:39:32;6.40;99.90
48376;DHT22;34178;50.904;11.560;2023-01-09T04:41:58;6.30;99.90
48376;DHT22;34178;50.904;11.560;2023-01-09T04:44:24;6.20;99.90
48376;DHT22;34178;50.904;11.560;2023-01-09T04:46:54;6.20;99.90
48376;DHT22;34178;50.904;11.560;2023-01-09T04:49:20;6.20;99.90
48376;DHT22;34178;50.904;11.560;2023-01-09T04:51:46;6.20;99.90
48376;DHT22;34178;50.904;11.560;2023-01-09T04:54:12;6.30;99.90
48376;DHT22;34178;50.904;11.560;2023-01-09T04:56:37;6.30;99.90
48376;DHT22;34178;50.904;11.560;2023-01-09T04:59:05;6.30;99.90
48376;DHT22;34178;50.904;11.560;2023-01-09T05:01:32;6.30;99.90
48376;DHT22;34178;50.904;11.560;2023-01-09T05:03:57;6.20;99.90
48376;DHT22;34178;50.904;11.560;2023-01-09T05:06:23;6.30;99.90
48376;DHT22;34178;50.904;11.560;2023-01-09T05:08:49;6.20;99.90
48376;DHT22;34178;50.904;11.560;2023-01-09T05:11:14;6.30;99.90
48376;DHT22;34178;50.904;11.560;2023-01-09T05:13:40;6.30;99.90
48376;DHT22;34178;50.904;11.560;2023-01-09T05:16:06;6.30;99.90
48376;DHT22;34178;50.904;11.560;2023-01-09T05:18:32;6.40;99.90
48376;DHT22;34178;50.904;11.560;2023-01-09T05:20:58;6.40;99.90
48376;DHT22;34178;50.904;11.560;2023-01-09T05:23:23;6.40;99.90
48376;DHT22;34178;50.904;11.560;2023-01-09T05:25:49;6.40;99.90
48376;DHT22;34178;50.904;11.560;2023-01-09T05:28:15;6.30;99.90
48376;DHT22;34178;50.904;11.560;2023-01-09T05:30:41;6.20;99.90
48376;DHT22;34178;50.904;11.560;2023-01-09T05:33:07;6.10;99.90
48376;DHT22;34178;50.904;11.560;2023-01-09T05:35:32;6.10;99.90
48376;DHT22;34178;50.904;11.560;2023-01-09T05:37:58;6.10;99.90
48376;DHT22;34178;50.904;11.560;2023-01-09T05:40:24;6.10;99.90
48376;DHT22;34178;50.904;11.560;2023-01-09T05:42:49;6.20;99.90
48376;DHT22;34178;50.904;11.560;2023-01-09T05:45:15;6.20;99.90
48376;DHT22;34178;50.904;11.560;2023-01-09T05:47:43;6.20;99.90
48376;DHT22;34178;50.904;11.560;2023-01-09T05:50:10;6.20;99.90
48376;DHT22;34178;50.904;11.560;2023-01-09T05:52:36;6.20;99.90
48376;DHT22;34178;50.904;11.560;2023-01-09T05:55:02;6.30;99.90
48376;DHT22;34178;50.904;11.560;2023-01-09T05:57:28;6.30;99.90
48376;DHT22;34178;50.904;11.560;2023-01-09T05:59:54;6.30;99.90
48376;DHT22;34178;50.904;11.560;2023-01-09T06:02:20;6.30;99.90
48376;DHT22;34178;50.904;11.560;2023-01-09T06:04:45;6.30;99.90
48376;DHT22;34178;50.904;11.560;2023-01-09T06:07:11;6.40;99.90
48376;DHT22;34178;50.904;11.560;2023-01-09T06:09:37;6.40;99.90
48376;DHT22;34178;50.904;11.560;2023-01-09T06:12:02;6.40;99.90
48376;DHT22;34178;50.904;11.560;2023-01-09T06:14:28;6.40;99.90
48376;DHT22;34178;50.904;11.560;2023-01-09T06:16:54;6.40;99.90
48376;DHT22;34178;50.904;11.560;2023-01-09T06:19:20;6.40;99.90
48376;DHT22;34178;50.904;11.560;2023-01-09T06:21:46;6.40;99.90
48376;DHT22;34178;50.904;11.560;2023-01-09T06:24:11;6.40;99.90
48376;DHT22;34178;50.904;11.560;2023-01-09T06:26:37;6.60;99.90
48376;DHT22;34178;50.904;11.560;2023-01-09T06:29:03;6.70;99.90
48376;DHT22;34178;50.904;11.560;2023-01-09T06:31:28;6.80;99.90
48376;DHT22;34178;50.904;11.560;2023-01-09T06:33:54;6.90;99.90
48376;DHT22;34178;50.904;11.560;2023-01-09T06:36:20;7.00;99.90
48376;DHT22;34178;50.904;11.560;2023-01-09T06:38:46;7.20;99.90
48376;DHT22;34178;50.904;11.560;2023-01-09T06:41:11;7.30;99.90
48376;DHT22;34178;50.904;11.560;2023-01-09T06:43:37;7.50;99.90
48376;DHT22;34178;50.904;11.560;2023-01-09T06:46:03;7.70;99.90
48376;DHT22;34178;50.904;11.560;2023-01-09T06:48:32;7.90;99.90
48376;DHT22;34178;50.904;11.560;2023-01-09T06:50:58;8.10;99.90
48376;DHT22;34178;50.904;11.560;2023-01-09T06:53:23;8.20;99.90
48376;DHT22;34178;50.904;11.560;2023-01-09T06:55:49;8.40;99.90
48376;DHT22;34178;50.904;11.560;2023-01-09T06:58:15;8.40;99.90
48376;DHT22;34178;50.904;11.560;2023-01-09T07:00:41;8.50;99.90
48376;DHT22;34178;50.904;11.560;2023-01-09T07:03:06;8.50;99.90
48376;DHT22;34178;50.904;11.560;2023-01-09T07:05:37;8.50;99.90
48376;DHT22;34178;50.904;11.560;2023-01-09T07:08:04;8.50;99.90
48376;DHT22;34178;50.904;11.560;2023-01-09T07:10:30;8.50;99.90
48376;DHT22;34178;50.904;11.560;2023-01-09T07:12:56;8.60;99.90
48376;DHT22;34178;50.904;11.560;2023-01-09T07:15:22;8.60;99.90
48376;DHT22;34178;50.904;11.560;2023-01-09T07:17:51;8.60;99.90
48376;DHT22;34178;50.904;11.560;2023-01-09T07:20:17;8.60;99.90
48376;DHT22;34178;50.904;11.560;2023-01-09T07:22:44;8.60;99.90
48376;DHT22;34178;50.904;11.560;2023-01-09T07:25:10;8.70;99.90
48376;DHT22;34178;50.904;11.560;2023-01-09T07:27:35;8.70;99.90
48376;DHT22;34178;50.904;11.560;2023-01-09T07:30:02;8.70;99.90
48376;DHT22;34178;50.904;11.560;2023-01-09T07:32:27;8.80;99.90
48376;DHT22;34178;50.904;11.560;2023-01-09T07:34:53;8.80;99.90
48376;DHT22;34178;50.904;11.560;2023-01-09T07:37:19;8.80;99.90
48376;DHT22;34178;50.904;11.560;2023-01-09T07:39:44;8.80;99.90
48376;DHT22;34178;50.904;11.560;2023-01-09T07:42:10;8.80;99.90
48376;DHT22;34178;50.904;11.560;2023-01-09T07:44:36;8.80;99.90
48376;DHT22;34178;50.904;11.560;2023-01-09T07:47:02;8.80;99.90
48376;DHT22;34178;50.904;11.560;2023-01-09T07:49:28;8.80;99.90
48376;DHT22;34178;50.904;11.560;2023-01-09T07:51:54;8.70;99.90
48376;DHT22;34178;50.904;11.560;2023-01-09T07:54:20;8.70;99.90
48376;DHT22;34178;50.904;11.560;2023-01-09T07:56:46;8.70;99.90
48376;DHT22;34178;50.904;11.560;2023-01-09T07:59:11;8.70;99.90
48376;DHT22;34178;50.904;11.560;2023-01-09T08:01:37;8.60;99.90
48376;DHT22;34178;50.904;11.560;2023-01-09T08:04:03;8.60;99.90
48376;DHT22;34178;50.904;11.560;2023-01-09T08:06:29;8.60;99.90
48376;DHT22;34178;50.904;11.560;2023-01-09T08:08:56;8.60;99.90
48376;DHT22;34178;50.904;11.560;2023-01-09T08:11:22;8.60;99.90
48376;DHT22;34178;50.904;11.560;2023-01-09T08:13:48;8.50;99.90
48376;DHT22;34178;50.904;11.560;2023-01-09T08:16:14;8.60;99.90
48376;DHT22;34178;50.904;11.560;2023-01-09T08:18:40;8.60;99.90
48376;DHT22;34178;50.904;11.560;2023-01-09T08:21:06;8.60;99.90
48376;DHT22;34178;50.904;11.560;2023-01-09T08:23:32;8.60;99.90
48376;DHT22;34178;50.904;11.560;2023-01-09T08:25:58;8.60;99.90
48376;DHT22;34178;50.904;11.560;2023-01-09T08:28:23;8.60;99.90
48376;DHT22;34178;50.904;11.560;2023-01-09T08:30:49;8.60;99.90
48376;DHT22;34178;50.904;11.560;2023-01-09T08:33:15;8.60;99.90
48376;DHT22;34178;50.904;11.560;2023-01-09T08:35:42;8.60;99.90
48376;DHT22;34178;50.904;11.560;2023-01-09T08:38:09;8.60;99.90
48376;DHT22;34178;50.904;11.560;2023-01-09T08:40:34;8.50;99.90
48376;DHT22;34178;50.904;11.560;2023-01-09T08:43:00;8.50;99.90
48376;DHT22;34178;50.904;11.560;2023-01-09T08:45:44;8.50;99.90
48376;DHT22;34178;50.904;11.560;2023-01-09T08:48:29;8.60;99.90
48376;DHT22;34178;50.904;11.560;2023-01-09T08:50:54;8.60;99.90
48376;DHT22;34178;50.904;11.560;2023-01-09T08:53:20;8.60;99.90
48376;DHT22;34178;50.904;11.560;2023-01-09T08:55:46;8.70;99.90
48376;DHT22;34178;50.904;11.560;2023-01-09T08:58:11;8.80;99.90
48376;DHT22;34178;50.904;11.560;2023-01-09T09:00:37;8.80;99.90
48376;DHT22;34178;50.904;11.560;2023-01-09T09:03:03;8.90;99.90
48376;DHT22;34178;50.904;11.560;2023-01-09T09:05:31;9.00;99.90
48376;DHT22;34178;50.904;11.560;2023-01-09T09:07:57;9.00;99.90
48376;DHT22;34178;50.904;11.560;2023-01-09T09:10:25;9.00;99.90
48376;DHT22;34178;50.904;11.560;2023-01-09T09:12:52;9.00;99.90
48376;DHT22;34178;50.904;11.560;2023-01-09T09:15:19;8.90;99.90
48376;DHT22;34178;50.904;11.560;2023-01-09T09:17:55;8.90;99.90
48376;DHT22;34178;50.904;11.560;2023-01-09T09:20:24;8.80;99.90
48376;DHT22;34178;50.904;11.560;2023-01-09T09:22:50;8.80;99.90
48376;DHT22;34178;50.904;11.560;2023-01-09T09:25:18;8.80;99.90
48376;DHT22;34178;50.904;11.560;2023-01-09T09:27:44;8.80;99.90
48376;DHT22;34178;50.904;11.560;2023-01-09T09:30:12;8.70;99.90
48376;DHT22;34178;50.904;11.560;2023-01-09T09:32:39;8.60;99.90
48376;DHT22;34178;50.904;11.560;2023-01-09T09:35:05;8.60;99.90
48376;DHT22;34178;50.904;11.560;2023-01-09T09:37:31;8.50;99.90
48376;DHT22;34178;50.904;11.560;2023-01-09T09:39:57;8.50;99.90
48376;DHT22;34178;50.904;11.560;2023-01-09T09:42:39;8.50;99.90
48376;DHT22;34178;50.904;11.560;2023-01-09T09:56:04;8.30;99.90
48376;DHT22;34178;50.904;11.560;2023-01-09T09:58:47;8.30;99.90
48376;DHT22;34178;50.904;11.560;2023-01-09T10:01:40;8.20;99.90
48376;DHT22;34178;50.904;11.560;2023-01-09T10:04:14;8.30;99.90
48376;DHT22;34178;50.904;11.560;2023-01-09T10:06:46;8.40;99.90
48376;DHT22;34178;50.904;11.560;2023-01-09T10:09:45;8.50;99.90
48376;DHT22;34178;50.904;11.560;2023-01-09T10:12:29;8.60;99.90
48376;DHT22;34178;50.904;11.560;2023-01-09T10:15:00;8.70;99.90
48376;DHT22;34178;50.904;11.560;2023-01-09T10:20:38;8.80;99.90
48376;DHT22;34178;50.904;11.560;2023-01-09T10:31:59;9.10;99.90
48376;DHT22;34178;50.904;11.560;2023-01-09T10:34:53;9.10;99.90
48376;DHT22;34178;50.904;11.560;2023-01-09T10:37:28;9.10;99.90
48376;DHT22;34178;50.904;11.560;2023-01-09T10:40:03;9.00;99.90
48376;DHT22;34178;50.904;11.560;2023-01-09T10:47:47;9.00;99.90
48376;DHT22;34178;50.904;11.560;2023-01-09T10:50:21;9.10;99.90
48376;DHT22;34178;50.904;11.560;2023-01-09T10:52:52;9.10;99.90
48376;DHT22;34178;50.904;11.560;2023-01-09T10:58:03;9.10;99.90
48376;DHT22;34178;50.904;11.560;2023-01-09T11:00:35;9.10;99.90
48376;DHT22;34178;50.904;11.560;2023-01-09T11:03:01;9.20;99.90
48376;DHT22;34178;50.904;11.560;2023-01-09T11:05:28;9.00;99.90
48376;DHT22;34178;50.904;11.560;2023-01-09T11:13:27;9.10;99.90
48376;DHT22;34178;50.904;11.560;2023-01-09T11:16:06;9.20;99.90
48376;DHT22;34178;50.904;11.560;2023-01-09T11:18:37;9.20;99.90
48376;DHT22;34178;50.904;11.560;2023-01-09T11:23:52;9.00;99.90
48376;DHT22;34178;50.904;11.560;2023-01-09T11:26:26;9.00;99.90
48376;DHT22;34178;50.904;11.560;2023-01-09T11:29:14;9.00;99.90
48376;DHT22;34178;50.904;11.560;2023-01-09T11:31:42;9.00;99.90
48376;DHT22;34178;50.904;11.560;2023-01-09T11:34:43;9.00;99.90
48376;DHT22;34178;50.904;11.560;2023-01-09T11:37:12;9.00;99.90
48376;DHT22;34178;50.904;11.560;2023-01-09T11:39:39;9.00;99.90
48376;DHT22;34178;50.904;11.560;2023-01-09T11:42:27;8.90;99.90
48376;DHT22;34178;50.904;11.560;2023-01-09T11:45:14;8.90;99.90
48376;DHT22;34178;50.904;11.560;2023-01-09T11:47:41;8.80;99.90
48376;DHT22;34178;50.904;11.560;2023-01-09T11:50:19;8.70;99.90
48376;DHT22;34178;50.904;11.560;2023-01-09T11:52:46;8.70;99.90
48376;DHT22;34178;50.904;11.560;2023-01-09T11:55:15;8.60;99.90
48376;DHT22;34178;50.904;11.560;2023-01-09T11:57:42;8.50;99.90
48376;DHT22;34178;50.904;11.560;2023-01-09T12:33:46;8.50;99.90
48376;DHT22;34178;50.904;11.560;2023-01-09T12:36:23;8.50;99.90
48376;DHT22;34178;50.904;11.560;2023-01-09T12:39:10;8.60;99.90
48376;DHT22;34178;50.904;11.560;2023-01-09T12:53:15;8.30;99.90
48376;DHT22;34178;50.904;11.560;2023-01-09T12:55:49;8.30;99.90
48376;DHT22;34178;50.904;11.560;2023-01-09T12:58:35;8.40;99.90
48376;DHT22;34178;50.904;11.560;2023-01-09T13:01:04;8.40;99.90
48376;DHT22;34178;50.904;11.560;2023-01-09T13:03:38;8.60;99.90
48376;DHT22;34178;50.904;11.560;2023-01-09T13:06:07;8.70;99.90
48376;DHT22;34178;50.904;11.560;2023-01-09T13:11:35;8.90;99.90
48376;DHT22;34178;50.904;11.560;2023-01-09T13:14:19;8.80;99.90
48376;DHT22;34178;50.904;11.560;2023-01-09T13:16:49;8.70;99.90
48376;DHT22;34178;50.904;11.560;2023-01-09T13:19:21;8.60;99.90
48376;DHT22;34178;50.904;11.560;2023-01-09T13:21:49;8.60;99.90
48376;DHT22;34178;50.904;11.560;2023-01-09T13:27:02;8.90;99.90
48376;DHT22;34178;50.904;11.560;2023-01-09T13:29:39;8.90;99.90
48376;DHT22;34178;50.904;11.560;2023-01-09T13:32:33;8.90;99.90
48376;DHT22;34178;50.904;11.560;2023-01-09T13:35:01;8.80;99.90
48376;DHT22;34178;50.904;11.560;2023-01-09T13:37:33;8.80;99.90
48376;DHT22;34178;50.904;11.560;2023-01-09T13:43:06;9.00;99.90
48376;DHT22;34178;50.904;11.560;2023-01-09T13:45:35;9.00;99.90
48376;DHT22;34178;50.904;11.560;2023-01-09T13:50:34;9.10;99.90
48376;DHT22;34178;50.904;11.560;2023-01-09T13:58:30;9.10;99.90
48376;DHT22;34178;50.904;11.560;2023-01-09T14:06:34;9.00;99.90
48376;DHT22;34178;50.904;11.560;2023-01-09T14:09:18;8.90;99.90
48376;DHT22;34178;50.904;11.560;2023-01-09T14:11:46;8.80;99.90
48376;DHT22;34178;50.904;11.560;2023-01-09T14:14:26;8.80;99.90
48376;DHT22;34178;50.904;11.560;2023-01-09T14:16:54;8.60;99.90
48376;DHT22;34178;50.904;11.560;2023-01-09T14:19:36;8.60;99.90
48376;DHT22;34178;50.904;11.560;2023-01-09T14:22:04;8.60;99.90
48376;DHT22;34178;50.904;11.560;2023-01-09T14:24:38;8.60;99.90
48376;DHT22;34178;50.904;11.560;2023-01-09T14:35:54;8.70;99.90
48376;DHT22;34178;50.904;11.560;2023-01-09T14:41:17;8.70;99.90
48376;DHT22;34178;50.904;11.560;2023-01-09T14:44:03;8.80;99.90
48376;DHT22;34178;50.904;11.560;2023-01-09T14:46:33;8.70;99.90
48376;DHT22;34178;50.904;11.560;2023-01-09T14:49:20;8.60;99.90
48376;DHT22;34178;50.904;11.560;2023-01-09T14:51:48;8.60;99.90
48376;DHT22;34178;50.904;11.560;2023-01-09T14:54:27;8.50;99.90
48376;DHT22;34178;50.904;11.560;2023-01-09T14:56:54;8.40;99.90
48376;DHT22;34178;50.904;11.560;2023-01-09T14:59:20;8.20;99.90
48376;DHT22;34178;50.904;11.560;2023-01-09T15:01:48;8.10;99.90
48376;DHT22;34178;50.904;11.560;2023-01-09T15:06:50;8.00;99.90
48376;DHT22;34178;50.904;11.560;2023-01-09T15:09:24;8.00;99.90
48376;DHT22;34178;50.904;11.560;2023-01-09T15:11:52;7.90;99.90
48376;DHT22;34178;50.904;11.560;2023-01-09T15:14:39;7.90;99.90
48376;DHT22;34178;50.904;11.560;2023-01-09T15:17:19;7.80;99.90
48376;DHT22;34178;50.904;11.560;2023-01-09T15:19:45;7.70;99.90
48376;DHT22;34178;50.904;11.560;2023-01-09T15:22:40;7.60;99.90
48376;DHT22;34178;50.904;11.560;2023-01-09T15:27:50;7.50;99.90
48376;DHT22;34178;50.904;11.560;2023-01-09T15:30:31;7.40;99.90
48376;DHT22;34178;50.904;11.560;2023-01-09T15:33:18;7.30;99.90
48376;DHT22;34178;50.904;11.560;2023-01-09T15:35:49;7.20;99.90
48376;DHT22;34178;50.904;11.560;2023-01-09T15:38:20;7.10;99.90
48376;DHT22;34178;50.904;11.560;2023-01-09T15:41:03;7.00;99.90
48376;DHT22;34178;50.904;11.560;2023-01-09T15:43:30;6.90;99.90
48376;DHT22;34178;50.904;11.560;2023-01-09T15:45:56;6.70;99.90
48376;DHT22;34178;50.904;11.560;2023-01-09T15:48:35;6.60;99.90
48376;DHT22;34178;50.904;11.560;2023-01-09T15:51:12;6.50;99.90
48376;DHT22;34178;50.904;11.560;2023-01-09T15:53:40;6.40;99.90
48376;DHT22;34178;50.904;11.560;2023-01-09T15:58:48;6.10;99.90
48376;DHT22;34178;50.904;11.560;2023-01-09T16:01:33;6.00;99.90
48376;DHT22;34178;50.904;11.560;2023-01-09T16:06:30;5.90;99.90
48376;DHT22;34178;50.904;11.560;2023-01-09T16:08:58;5.80;99.90
48376;DHT22;34178;50.904;11.560;2023-01-09T16:11:35;5.70;99.90
48376;DHT22;34178;50.904;11.560;2023-01-09T16:16:50;5.60;99.90
48376;DHT22;34178;50.904;11.560;2023-01-09T16:21:59;5.60;99.90
48376;DHT22;34178;50.904;11.560;2023-01-09T16:24:41;5.70;99.90
48376;DHT22;34178;50.904;11.560;2023-01-09T16:29:56;5.50;99.90
48376;DHT22;34178;50.904;11.560;2023-01-09T16:32:26;5.50;99.90
48376;DHT22;34178;50.904;11.560;2023-01-09T16:34:57;5.50;99.90
48376;DHT22;34178;50.904;11.560;2023-01-09T16:37:24;5.50;99.90
48376;DHT22;34178;50.904;11.560;2023-01-09T16:42:58;5.30;99.90
48376;DHT22;34178;50.904;11.560;2023-01-09T16:45:28;5.20;99.90
48376;DHT22;34178;50.904;11.560;2023-01-09T16:47:54;5.00;99.90
48376;DHT22;34178;50.904;11.560;2023-01-09T16:50:19;4.90;99.90
48376;DHT22;34178;50.904;11.560;2023-01-09T16:52:46;4.90;99.90
48376;DHT22;34178;50.904;11.560;2023-01-09T16:55:11;4.80;99.90
48376;DHT22;34178;50.904;11.560;2023-01-09T16:57:37;4.80;99.90
48376;DHT22;34178;50.904;11.560;2023-01-09T17:00:03;4.80;99.90
48376;DHT22;34178;50.904;11.560;2023-01-09T17:02:29;4.60;99.90
48376;DHT22;34178;50.904;11.560;2023-01-09T17:04:55;4.60;99.90
48376;DHT22;34178;50.904;11.560;2023-01-09T17:07:22;4.50;99.90
48376;DHT22;34178;50.904;11.560;2023-01-09T17:09:51;4.40;99.90
48376;DHT22;34178;50.904;11.560;2023-01-09T17:12:20;4.30;99.90
48376;DHT22;34178;50.904;11.560;2023-01-09T17:14:47;4.20;99.90
48376;DHT22;34178;50.904;11.560;2023-01-09T17:17:13;4.10;99.90
48376;DHT22;34178;50.904;11.560;2023-01-09T17:19:39;4.10;99.90
48376;DHT22;34178;50.904;11.560;2023-01-09T17:22:05;4.10;99.90
48376;DHT22;34178;50.904;11.560;2023-01-09T17:24:32;4.10;99.90
48376;DHT22;34178;50.904;11.560;2023-01-09T17:27:30;4.10;99.90
48376;DHT22;34178;50.904;11.560;2023-01-09T17:30:15;4.10;99.90
48376;DHT22;34178;50.904;11.560;2023-01-09T17:32:41;4.00;99.90
48376;DHT22;34178;50.904;11.560;2023-01-09T17:35:07;4.00;99.90
48376;DHT22;34178;50.904;11.560;2023-01-09T17:37:34;3.90;99.90
48376;DHT22;34178;50.904;11.560;2023-01-09T17:39:59;3.90;99.90
48376;DHT22;34178;50.904;11.560;2023-01-09T17:42:28;3.90;99.90
48376;DHT22;34178;50.904;11.560;2023-01-09T17:44:54;3.90;99.90
48376;DHT22;34178;50.904;11.560;2023-01-09T17:47:22;3.90;99.90
48376;DHT22;34178;50.904;11.560;2023-01-09T17:49:48;3.70;99.90
48376;DHT22;34178;50.904;11.560;2023-01-09T17:52:13;3.70;99.90
48376;DHT22;34178;50.904;11.560;2023-01-09T17:54:39;3.70;99.90
48376;DHT22;34178;50.904;11.560;2023-01-09T17:57:06;3.80;99.90
48376;DHT22;34178;50.904;11.560;2023-01-09T17:59:32;3.70;99.90
48376;DHT22;34178;50.904;11.560;2023-01-09T18:01:58;3.70;99.90
48376;DHT22;34178;50.904;11.560;2023-01-09T18:04:23;3.70;99.90
48376;DHT22;34178;50.904;11.560;2023-01-09T18:06:49;3.60;99.90
48376;DHT22;34178;50.904;11.560;2023-01-09T18:09:16;3.60;99.90
48376;DHT22;34178;50.904;11.560;2023-01-09T18:11:43;3.60;99.90
48376;DHT22;34178;50.904;11.560;2023-01-09T18:14:10;3.60;99.90
48376;DHT22;34178;50.904;11.560;2023-01-09T18:16:35;3.60;99.90
48376;DHT22;34178;50.904;11.560;2023-01-09T18:19:02;3.60;99.90
48376;DHT22;34178;50.904;11.560;2023-01-09T18:21:28;3.60;99.90
48376;DHT22;34178;50.904;11.560;2023-01-09T18:23:56;3.50;99.90
48376;DHT22;34178;50.904;11.560;2023-01-09T18:26:22;3.50;99.90